Time;durP1;ratioP1;P1;durP2;ratioP2;P2;SDS_P1;SDS_P2;PMS_P1;PMS_P2;Temp;Humidity;BMP_temperature;BMP_pressure;BME280_temperature;BME280_humidity;BME280_pressure;Samples;Min_cycle;Max_cycle;Signal;HPM_P1;HPM_P2
2023/05/19 00:02:32;;;;;;;15.82;3.78;;;;;;;8.94;100.00;102939.63;4867691;29;20083;-86
2023/05/19 00:05:01;;;;;;;11.52;2.63;;;;;;;8.94;100.00;102950.16;4866379;29;20052;-84
2023/05/19 00:07:31;;;;;;;9.68;2.53;;;;;;;8.94;100.00;102944.91;4841706;29;20494;-85
2023/05/19 00:09:58;;;;;;;11.63;2.80;;;;;;;8.95;100.00;102956.31;4863082;29;20053;-86
2023/05/19 00:12:26;;;;;;;12.02;2.97;;;;;;;8.94;100.00;102942.28;4877717;29;20048;-86
2023/05/19 00:14:53;;;;;;;12.70;3.90;;;;;;;8.94;100.00;102942.28;4849150;29;20056;-86
2023/05/19 00:17:21;;;;;;;14.88;3.08;;;;;;;8.94;100.00;102939.63;4875346;29;20068;-86
2023/05/19 00:19:48;;;;;;;11.65;2.88;;;;;;;8.93;100.00;102932.56;4877255;29;20056;-84
2023/05/19 00:22:16;;;;;;;16.13;2.95;;;;;;;8.93;100.00;102932.56;4865916;29;20055;-85
2023/05/19 00:24:43;;;;;;;14.88;3.08;;;;;;;8.92;100.00;102925.53;4858905;29;20064;-85
2023/05/19 00:27:11;;;;;;;11.82;2.78;;;;;;;8.93;100.00;102931.69;4846181;29;20510;-84
2023/05/19 00:29:38;;;;;;;16.92;3.22;;;;;;;8.93;100.00;102924.69;4858247;29;20052;-84
2023/05/19 00:32:05;;;;;;;16.95;3.60;;;;;;;8.93;100.00;102924.69;4861083;29;20516;-84
2023/05/19 00:34:33;;;;;;;16.02;2.83;;;;;;;8.93;100.00;102924.69;4871473;29;20048;-84
2023/05/19 00:37:00;;;;;;;8.98;2.50;;;;;;;8.95;100.00;102924.75;4861776;29;20418;-85
2023/05/19 00:39:28;;;;;;;14.77;2.88;;;;;;;8.94;100.00;102913.34;4809129;29;20056;-84
2023/05/19 00:41:55;;;;;;;14.27;3.40;;;;;;;8.94;100.00;102915.97;4855610;29;20057;-85
2023/05/19 00:44:23;;;;;;;16.08;3.13;;;;;;;8.94;100.00;102912.41;4854778;29;20049;-85
2023/05/19 00:46:50;;;;;;;10.23;2.83;;;;;;;8.94;100.00;102907.16;4843166;29;20049;-85
2023/05/19 00:49:17;;;;;;;11.20;3.08;;;;;;;8.95;100.00;102909.88;4873738;29;20048;-85
2023/05/19 00:51:45;;;;;;;16.25;3.30;;;;;;;8.98;100.00;102914.38;4883308;29;20059;-85
2023/05/19 00:54:14;;;;;;;16.67;3.35;;;;;;;8.96;100.00;102906.41;4870159;29;20037;-85
2023/05/19 00:56:42;;;;;;;8.20;2.95;;;;;;;8.95;100.00;102896.72;4867148;29;20510;-85
2023/05/19 00:59:09;;;;;;;15.77;2.90;;;;;;;8.98;100.00;102910.00;4884044;29;20049;-85
2023/05/19 01:01:38;;;;;;;12.40;3.33;;;;;;;9.00;100.00;102909.16;4857266;29;20060;-85
2023/05/19 01:04:08;;;;;;;11.40;3.35;;;;;;;9.00;100.00;102898.63;4885978;29;20048;-85
2023/05/19 01:06:39;;;;;;;12.07;3.33;;;;;;;9.01;100.00;102898.72;4856126;29;20410;-84
2023/05/19 01:09:07;;;;;;;11.35;3.45;;;;;;;9.02;100.00;102896.97;4834131;29;20518;-85
2023/05/19 01:11:35;;;;;;;18.05;3.60;;;;;;;9.02;100.00;102892.63;4851591;29;20418;-85
2023/05/19 01:14:02;;;;;;;15.55;3.45;;;;;;;9.02;100.00;102895.25;4871853;29;20049;-85
2023/05/19 01:16:36;;;;;;;12.93;3.78;;;;;;;9.02;100.00;102892.63;4851071;29;20053;-85
2023/05/19 01:19:19;;;;;;;19.20;3.70;;;;;;;9.02;100.00;102895.25;4844434;29;20506;-85
2023/05/19 01:22:21;;;;;;;14.27;3.47;;;;;;;9.03;100.00;102898.78;4861552;29;20060;-85
2023/05/19 01:25:22;;;;;;;20.42;4.10;;;;;;;9.02;100.00;102894.34;4838898;29;20053;-84
2023/05/19 01:28:05;;;;;;;15.90;3.72;;;;;;;9.01;100.00;102895.19;4888056;29;20049;-85
2023/05/19 01:30:38;;;;;;;20.40;4.03;;;;;;;9.02;100.00;102894.34;4888789;29;20053;-85
2023/05/19 01:33:11;;;;;;;15.02;3.95;;;;;;;9.02;100.00;102899.59;4887839;29;20045;-85
2023/05/19 01:35:40;;;;;;;14.00;4.15;;;;;;;9.01;100.00;102887.31;4858428;29;20911;-85
2023/05/19 01:38:09;;;;;;;10.15;3.70;;;;;;;9.01;100.00;102897.81;4860960;29;20048;-85
2023/05/19 01:40:40;;;;;;;17.50;3.80;;;;;;;9.02;100.00;102891.72;4860759;29;20063;-85
2023/05/19 01:43:15;;;;;;;15.88;3.88;;;;;;;9.01;100.00;102892.56;4874762;29;20048;-85
2023/05/19 01:45:43;;;;;;;16.50;3.67;;;;;;;9.01;100.00;102885.56;4884821;29;20525;-85
2023/05/19 01:48:12;;;;;;;16.48;5.05;;;;;;;9.01;100.00;102890.81;4872977;29;20053;-85
2023/05/19 01:50:40;;;;;;;17.23;3.90;;;;;;;8.98;100.00;102881.06;4863054;29;20655;-85
2023/05/19 01:53:09;;;;;;;9.68;3.85;;;;;;;8.99;100.00;102887.22;4881641;29;20049;-85
2023/05/19 01:55:46;;;;;;;15.65;3.72;;;;;;;8.95;100.00;102878.31;4845685;29;20057;-85
2023/05/19 01:58:21;;;;;;;14.90;3.90;;;;;;;8.94;100.00;102880.88;4897297;29;20052;-85
2023/05/19 02:00:54;;;;;;;7.03;3.28;;;;;;;8.93;100.00;102879.97;4867212;29;20057;-85
2023/05/19 02:03:47;;;;;;;11.75;4.63;;;;;;;8.91;100.00;102879.03;4876707;29;20120;-86
2023/05/19 02:06:30;;;;;;;15.40;4.15;;;;;;;8.93;100.00;102868.56;4866258;29;20061;-85
2023/05/19 02:09:29;;;;;;;11.82;4.13;;;;;;;8.93;100.00;102876.47;4869854;29;20060;-85
2023/05/19 02:12:36;;;;;;;13.65;4.60;;;;;;;8.92;100.00;102872.03;4870047;29;20044;-85
2023/05/19 02:15:10;;;;;;;13.15;3.92;;;;;;;8.90;100.00;102866.72;4850521;29;20055;-86
2023/05/19 02:17:41;;;;;;;17.60;4.30;;;;;;;8.89;100.00;102867.53;4884146;29;20056;-85
2023/05/19 02:20:10;;;;;;;18.67;4.78;;;;;;;8.88;100.00;102865.72;4865534;29;20055;-85
2023/05/19 02:22:38;;;;;;;19.50;4.68;;;;;;;8.88;100.00;102865.72;4857091;29;20056;-85
2023/05/19 02:25:07;;;;;;;14.98;4.72;;;;;;;8.86;100.00;102864.78;4890840;29;20067;-85
2023/05/19 02:27:37;;;;;;;11.18;3.97;;;;;;;8.83;100.00;102862.03;4850880;29;20502;-85
2023/05/19 02:30:08;;;;;;;12.57;3.80;;;;;;;8.82;100.00;102859.31;4882182;29;20481;-85
2023/05/19 02:32:36;;;;;;;13.30;4.65;;;;;;;8.81;100.00;102858.44;4881359;29;20055;-85
2023/05/19 02:35:07;;;;;;;13.25;4.22;;;;;;;8.80;100.00;102856.63;4895830;29;20512;-86
2023/05/19 02:37:34;;;;;;;13.65;4.03;;;;;;;8.75;100.00;102848.56;4851183;29;20874;-85
2023/05/19 02:40:03;;;;;;;18.25;5.25;;;;;;;8.72;100.00;102845.78;4890174;29;20048;-85
2023/05/19 02:42:30;;;;;;;15.82;4.50;;;;;;;8.71;100.00;102845.72;4858332;29;20052;-85
2023/05/19 02:44:59;;;;;;;9.60;4.13;;;;;;;8.70;100.00;102854.47;4881775;29;20041;-85
2023/05/19 02:47:26;;;;;;;16.20;4.45;;;;;;;8.69;100.00;102850.91;4892683;29;20056;-85
2023/05/19 02:49:54;;;;;;;10.77;4.13;;;;;;;8.67;100.00;102843.78;4872898;29;20053;-85
2023/05/19 02:52:21;;;;;;;17.75;4.15;;;;;;;8.64;100.00;102854.16;4863333;29;20067;-86
2023/05/19 02:54:49;;;;;;;14.00;4.55;;;;;;;8.63;100.00;102844.50;4859654;29;20052;-85
2023/05/19 02:57:16;;;;;;;10.55;3.67;;;;;;;8.64;100.00;102834.06;4847948;29;20060;-86
2023/05/19 02:59:44;;;;;;;11.30;4.25;;;;;;;8.63;100.00;102845.41;4856869;29;20052;-85
2023/05/19 03:02:11;;;;;;;16.45;4.28;;;;;;;8.63;100.00;102836.63;4884900;29;20052;-85
2023/05/19 03:04:41;;;;;;;11.38;3.80;;;;;;;8.61;100.00;102839.19;4896518;29;20044;-85
2023/05/19 03:07:09;;;;;;;9.57;4.70;;;;;;;8.61;100.00;102839.19;4877702;29;20064;-86
2023/05/19 03:09:37;;;;;;;19.10;4.53;;;;;;;8.61;100.00;102841.81;4874979;29;20053;-85
2023/05/19 03:12:06;;;;;;;19.13;4.82;;;;;;;8.61;100.00;102839.19;4877544;29;20056;-85
2023/05/19 03:14:36;;;;;;;11.10;3.80;;;;;;;8.62;100.00;102850.56;4850993;29;20045;-85
2023/05/19 03:17:06;;;;;;;14.75;4.88;;;;;;;8.58;100.00;102839.94;4829185;29;20053;-85
2023/05/19 03:19:34;;;;;;;14.98;4.95;;;;;;;8.58;100.00;102849.53;4879114;29;20064;-85
2023/05/19 03:22:01;;;;;;;14.55;4.22;;;;;;;8.57;100.00;102847.75;4851901;29;20056;-85
2023/05/19 03:24:29;;;;;;;9.15;4.28;;;;;;;8.53;100.00;102851.97;4888313;29;20044;-85
2023/05/19 03:26:57;;;;;;;11.50;4.20;;;;;;;8.51;100.00;102851.03;4899765;29;20421;-85
2023/05/19 03:29:24;;;;;;;19.00;6.25;;;;;;;8.53;100.00;102851.97;4855600;29;20068;-85
2023/05/19 03:31:53;;;;;;;15.05;5.88;;;;;;;8.58;100.00;102857.44;4865909;29;20052;-85
2023/05/19 03:34:21;;;;;;;14.65;6.20;;;;;;;8.62;100.00;102850.56;4878101;29;20053;-85
2023/05/19 03:36:49;;;;;;;17.98;6.50;;;;;;;8.65;100.00;102850.72;4896986;29;20052;-85
2023/05/19 03:39:17;;;;;;;15.30;6.22;;;;;;;8.66;100.00;102852.50;4886958;29;20592;-85
2023/05/19 03:41:47;;;;;;;26.17;8.48;;;;;;;8.68;100.00;102848.25;4864890;29;20056;-84
2023/05/19 03:44:15;;;;;;;22.63;6.95;;;;;;;8.67;100.00;102847.31;4867185;29;20064;-85
2023/05/19 03:46:44;;;;;;;15.93;6.38;;;;;;;8.66;100.00;102850.78;4870942;29;20060;-84
2023/05/19 03:49:43;;;;;;;17.42;6.50;;;;;;;8.68;100.00;102845.59;4862407;29;20422;-84
2023/05/19 03:52:37;;;;;;;25.80;7.00;;;;;;;8.67;100.00;102852.56;4861057;29;20061;-84
2023/05/19 03:55:19;;;;;;;17.40;6.75;;;;;;;8.67;100.00;102847.31;4866891;29;20060;-84
2023/05/19 03:57:47;;;;;;;16.67;6.40;;;;;;;8.66;100.00;102845.53;4861496;29;20060;-84
2023/05/19 04:00:15;;;;;;;24.92;6.78;;;;;;;8.66;100.00;102845.53;4844226;29;20061;-85
2023/05/19 04:02:43;;;;;;;18.45;7.28;;;;;;;8.67;100.00;102856.94;4832178;29;20060;-85
2023/05/19 04:05:10;;;;;;;16.52;7.20;;;;;;;8.69;100.00;102856.16;4867036;29;20045;-84
2023/05/19 04:07:38;;;;;;;18.80;7.28;;;;;;;8.71;100.00;102857.13;4870098;29;20056;-84
2023/05/19 04:10:06;;;;;;;15.90;7.50;;;;;;;8.73;100.00;102854.56;4872515;29;20048;-84
2023/05/19 04:12:33;;;;;;;18.75;7.30;;;;;;;8.80;100.00;102856.63;4883276;29;20083;-84
2023/05/19 04:15:01;;;;;;;16.55;7.43;;;;;;;8.89;100.00;102857.03;4855133;29;20041;-84
2023/05/19 04:17:28;;;;;;;12.48;6.60;;;;;;;9.00;100.00;102864.44;4857341;29;20056;-84
2023/05/19 04:19:55;;;;;;;17.25;6.45;;;;;;;9.18;100.00;102865.22;4876322;29;20053;-84
2023/05/19 04:22:23;;;;;;;14.88;6.47;;;;;;;9.43;100.00;102866.22;4872771;29;20055;-84
2023/05/19 04:24:51;;;;;;;13.82;5.88;;;;;;;9.60;100.00;102873.03;4854913;29;20560;-84
2023/05/19 04:27:20;;;;;;;11.68;5.20;;;;;;;10.00;100.00;102869.34;4864685;29;20057;-84
2023/05/19 04:29:49;;;;;;;15.60;6.32;;;;;;;10.68;100.00;102867.47;4878995;29;20059;-85
2023/05/19 04:32:16;;;;;;;10.65;4.78;;;;;;;11.41;100.00;102861.94;4854942;29;20061;-85
2023/05/19 04:34:45;;;;;;;9.05;4.43;;;;;;;12.15;100.00;102866.84;4884767;29;20040;-84
2023/05/19 04:37:19;;;;;;;7.35;4.63;;;;;;;12.91;100.00;102857.50;4846430;29;20063;-85
2023/05/19 04:39:47;;;;;;;9.40;4.03;;;;;;;13.59;100.00;102862.69;4874316;29;20052;-85
2023/05/19 04:42:18;;;;;;;10.25;3.80;;;;;;;14.25;100.00;102857.88;4863988;29;20049;-85
2023/05/19 04:44:47;;;;;;;8.55;4.38;;;;;;;14.76;100.00;102857.16;4866815;29;20053;-85
2023/05/19 04:47:16;;;;;;;9.45;3.80;;;;;;;15.23;100.00;102849.94;4858054;29;20056;-85
2023/05/19 04:49:44;;;;;;;9.93;3.92;;;;;;;15.60;100.00;102851.41;4848135;29;20045;-85
2023/05/19 04:52:12;;;;;;;10.05;3.75;;;;;;;16.00;100.00;102845.75;4875668;29;20063;-85
2023/05/19 04:54:40;;;;;;;9.38;3.47;;;;;;;16.32;100.00;102840.81;4859872;29;20057;-85
2023/05/19 04:57:10;;;;;;;9.38;3.92;;;;;;;16.59;100.00;102844.63;4860087;29;20052;-85
2023/05/19 04:59:39;;;;;;;9.98;4.05;;;;;;;16.73;100.00;102845.69;4855943;29;20067;-86
2023/05/19 05:02:07;;;;;;;6.38;3.63;;;;;;;16.99;100.00;102853.91;4863814;29;20044;-84
2023/05/19 05:04:39;;;;;;;7.30;3.15;;;;;;;17.25;100.00;102842.56;4858130;29;20044;-86
2023/05/19 05:07:06;;;;;;;7.68;3.65;;;;;;;17.54;100.00;102845.41;4890390;29;20410;-86
2023/05/19 05:09:34;;;;;;;7.85;3.83;;;;;;;17.68;100.00;102853.50;4865687;29;20068;-86
2023/05/19 05:12:02;;;;;;;7.43;3.55;;;;;;;17.73;100.00;102849.06;4867328;29;20061;-85
2023/05/19 05:14:30;;;;;;;6.57;3.08;;;;;;;17.67;100.00;102847.25;4870960;29;20075;-85
2023/05/19 05:16:57;;;;;;;7.65;3.40;;;;;;;17.51;100.00;102856.97;4841820;29;20052;-85
2023/05/19 05:19:25;;;;;;;12.07;4.30;;;;;;;17.44;100.00;102857.78;4858368;29;20057;-85
2023/05/19 05:21:54;;;;;;;9.68;2.88;;;;;;;17.65;100.00;102848.16;4880722;29;20107;-86
2023/05/19 05:24:22;;;;;;;7.65;3.58;;;;;;;18.06;100.00;102850.16;4877607;29;20052;-85
2023/05/19 05:26:54;;;;;;;6.97;3.28;;;;;;;18.35;100.00;102844.91;4873811;29;20438;-85
2023/05/19 05:29:22;;;;;;;7.68;3.03;;;;;;;18.56;100.00;102846.72;4870048;29;20053;-86
2023/05/19 05:31:50;;;;;;;6.07;3.03;;;;;;;18.83;100.00;102850.38;4855384;29;20057;-86
2023/05/19 05:34:17;;;;;;;8.95;3.55;;;;;;;19.05;100.00;102853.91;4865987;29;20056;-83
2023/05/19 05:36:45;;;;;;;5.75;3.25;;;;;;;19.12;100.00;102854.81;4861231;29;20045;-83
2023/05/19 05:39:14;;;;;;;6.82;2.92;;;;;;;19.09;100.00;102855.69;4861185;29;20072;-84
2023/05/19 05:41:43;;;;;;;7.90;2.97;;;;;;;19.11;100.00;102863.72;4868977;29;20320;-84
2023/05/19 05:44:11;;;;;;;8.10;3.53;;;;;;;19.32;100.00;102860.13;4851420;29;20052;-84
2023/05/19 05:46:41;;;;;;;9.80;2.97;;;;;;;19.58;100.00;102854.75;4867160;29;20045;-83
2023/05/19 05:49:11;;;;;;;8.60;3.00;;;;;;;19.84;100.00;102857.38;4853722;29;20060;-85
2023/05/19 05:51:42;;;;;;;6.93;2.97;;;;;;;20.12;100.00;102844.78;4850639;29;20053;-83
2023/05/19 05:54:31;;;;;;;8.23;2.97;;;;;;;20.38;100.00;102851.78;4879571;29;20065;-84
2023/05/19 05:56:59;;;;;;;6.47;3.38;;;;;;;20.51;100.00;102850.81;4869328;29;20053;-84
2023/05/19 05:59:26;;;;;;;10.15;2.72;;;;;;;20.56;98.46;102856.13;4871334;29;20056;-83
2023/05/19 06:01:54;;;;;;;5.78;3.20;;;;;;;20.61;92.53;102851.66;4872044;29;20057;-84
2023/05/19 06:04:22;;;;;;;8.40;3.22;;;;;;;20.37;90.18;102855.34;4877094;29;20063;-84
2023/05/19 06:06:51;;;;;;;10.90;3.30;;;;;;;20.23;92.43;102847.41;4845763;29;20052;-85
2023/05/19 06:09:22;;;;;;;8.18;3.80;;;;;;;20.11;92.74;102851.00;4877798;29;20056;-85
2023/05/19 06:11:51;;;;;;;9.32;3.28;;;;;;;20.01;90.77;102852.84;4860675;29;20924;-84
2023/05/19 06:14:18;;;;;;;6.50;2.78;;;;;;;20.01;86.40;102858.19;4849209;29;20053;-84
2023/05/19 06:17:06;;;;;;;6.65;3.00;;;;;;;19.71;80.63;102852.94;4878266;29;20053;-84
2023/05/19 06:19:36;;;;;;;11.88;3.38;;;;;;;19.16;78.59;102859.28;4874670;29;20498;-84
2023/05/19 06:22:04;;;;;;;;;;;;;;;18.58;77.59;102858.34;4850652;29;20057;-85
2023/05/19 06:24:32;;;;;;;5.20;2.80;;;;;;;18.14;82.96;102868.88;4862794;29;19946;-85
2023/05/19 06:27:03;;;;;;;7.28;2.72;;;;;;;17.71;83.69;102869.50;4867997;29;20056;-84
2023/05/19 06:29:30;;;;;;;7.45;3.00;;;;;;;17.29;82.32;102877.22;4876691;29;20052;-85
2023/05/19 06:32:01;;;;;;;7.85;3.05;;;;;;;17.06;81.02;102870.84;4858604;29;20054;-84
2023/05/19 06:34:30;;;;;;;5.82;2.50;;;;;;;16.73;79.30;102877.63;4890651;29;20052;-85
2023/05/19 06:37:03;;;;;;;7.30;2.67;;;;;;;16.39;79.07;102879.91;4857427;29;20044;-84
2023/05/19 06:39:32;;;;;;;7.93;2.55;;;;;;;16.13;79.07;102887.59;4875445;29;20056;-83
2023/05/19 06:41:59;;;;;;;5.90;2.78;;;;;;;15.91;80.97;102875.75;4878532;29;20084;-84
2023/05/19 06:44:50;;;;;;;5.80;2.63;;;;;;;15.71;82.99;102887.00;4841794;29;20072;-84
2023/05/19 06:47:17;;;;;;;8.77;3.10;;;;;;;15.69;83.47;102880.75;4855850;29;20067;-82
2023/05/19 06:49:45;;;;;;;7.15;2.83;;;;;;;15.75;84.80;102878.22;4871190;29;20060;-83
2023/05/19 06:52:13;;;;;;;7.40;2.85;;;;;;;15.91;83.57;102876.66;4843444;29;20048;-84
2023/05/19 06:54:40;;;;;;;11.05;2.45;;;;;;;16.01;80.18;102882.09;4879180;29;20071;-83
2023/05/19 06:57:09;;;;;;;5.70;2.58;;;;;;;15.95;78.38;102883.81;4877644;29;20056;-83
2023/05/19 06:59:39;;;;;;;8.27;2.33;;;;;;;15.62;78.56;102884.19;4869664;29;20513;-83
2023/05/19 07:02:07;;;;;;;5.10;2.45;;;;;;;15.38;79.24;102885.59;4861370;29;20503;-82
2023/05/19 07:04:35;;;;;;;6.78;2.42;;;;;;;15.17;78.61;102891.47;4847716;29;20056;-83
2023/05/19 07:07:05;;;;;;;8.80;2.00;;;;;;;15.01;78.97;102895.63;4853044;29;20049;-83
2023/05/19 07:09:33;;;;;;;7.95;2.28;;;;;;;14.92;78.64;102883.97;4846735;29;20057;-82
2023/05/19 07:12:01;;;;;;;7.72;2.15;;;;;;;14.94;80.56;102892.84;4875567;29;20068;-83
2023/05/19 07:14:32;;;;;;;5.13;2.35;;;;;;;15.10;82.12;102886.03;4875806;29;20063;-83
2023/05/19 07:17:00;;;;;;;6.13;1.92;;;;;;;15.15;80.46;102890.53;4847143;29;20048;-84
2023/05/19 07:19:27;;;;;;;7.45;2.47;;;;;;;15.20;79.12;102891.53;4859569;29;20090;-84
2023/05/19 07:21:55;;;;;;;8.25;2.17;;;;;;;15.15;79.09;102887.88;4862539;29;20044;-84
2023/05/19 07:24:24;;;;;;;4.72;2.10;;;;;;;15.19;80.01;102894.16;4819361;29;20064;-83
2023/05/19 07:26:52;;;;;;;5.65;2.30;;;;;;;15.21;79.53;102887.97;4863976;29;20459;-83
2023/05/19 07:29:19;;;;;;;5.22;2.45;;;;;;;15.24;78.29;102897.78;4862872;29;20067;-84
2023/05/19 07:31:46;;;;;;;8.68;2.50;;;;;;;15.13;78.09;102886.97;4867251;29;20052;-83
2023/05/19 07:34:14;;;;;;;5.90;2.22;;;;;;;15.05;77.98;102893.00;4877470;29;20061;-84
2023/05/19 07:36:41;;;;;;;10.23;2.83;;;;;;;14.94;78.11;102892.84;4839082;29;20052;-83
2023/05/19 07:39:09;;;;;;;8.65;2.83;;;;;;;14.99;82.66;102880.56;4840342;29;20051;-86
2023/05/19 07:41:36;;;;;;;6.22;2.40;;;;;;;15.19;83.06;102883.53;4883486;29;20049;-83
2023/05/19 07:44:06;;;;;;;6.80;2.47;;;;;;;15.22;80.15;102883.59;4892613;29;20049;-83
2023/05/19 07:46:34;;;;;;;8.38;2.63;;;;;;;15.31;80.39;102888.13;4867677;29;20057;-83
2023/05/19 07:49:02;;;;;;;6.30;2.00;;;;;;;15.25;79.71;102888.03;4851147;29;20060;-83
2023/05/19 07:51:30;;;;;;;6.63;2.58;;;;;;;15.13;78.89;102888.75;4869434;29;20063;-83
2023/05/19 07:53:57;;;;;;;8.00;2.97;;;;;;;15.02;78.03;102880.59;4848397;29;20057;-83
2023/05/19 07:56:26;;;;;;;13.73;2.75;;;;;;;15.01;78.67;102884.13;4878466;29;20051;-85
2023/05/19 07:58:53;;;;;;;5.95;2.13;;;;;;;15.06;80.00;102877.09;4851260;29;20060;-83
2023/05/19 08:01:20;;;;;;;7.75;2.53;;;;;;;15.05;78.37;102875.34;4891796;29;20057;-82
2023/05/19 08:03:48;;;;;;;6.05;2.58;;;;;;;14.94;78.15;102872.50;4854900;29;20057;-81
2023/05/19 08:06:16;;;;;;;7.25;2.63;;;;;;;14.96;80.74;102867.22;4850878;29;20049;-85
2023/05/19 08:08:43;;;;;;;4.38;2.17;;;;;;;15.10;81.37;102857.69;4842214;29;22143;-83
2023/05/19 08:11:10;;;;;;;6.30;2.50;;;;;;;15.24;82.70;102857.94;4840107;29;20053;-83
2023/05/19 08:13:39;;;;;;;8.90;3.03;;;;;;;15.37;81.26;102859.91;4866425;29;20056;-82
2023/05/19 08:16:08;;;;;;;4.75;2.40;;;;;;;15.33;80.64;102859.81;4875675;29;20058;-83
2023/05/19 08:18:35;;;;;;;6.22;2.42;;;;;;;15.29;80.47;102858.91;4849658;29;20557;-83
2023/05/19 08:21:03;;;;;;;4.30;2.40;;;;;;;15.23;79.73;102858.78;4865516;29;20052;-82
2023/05/19 08:23:32;;;;;;;5.80;2.28;;;;;;;15.21;79.84;102849.91;4839353;29;20067;-83
2023/05/19 08:26:01;;;;;;;3.70;1.98;;;;;;;15.24;80.33;102854.41;4859960;29;20419;-81
2023/05/19 08:28:31;;;;;;;6.40;2.40;;;;;;;15.21;80.71;102861.41;4849448;29;20064;-84
2023/05/19 08:30:58;;;;;;;5.57;2.00;;;;;;;15.24;81.79;102847.31;4864767;29;20044;-82
2023/05/19 08:33:26;;;;;;;6.22;2.45;;;;;;;15.29;80.07;102853.59;4846118;29;20056;-82
2023/05/19 08:35:56;;;;;;;8.48;2.38;;;;;;;15.24;79.62;102859.72;4851265;29;20056;-82
2023/05/19 08:38:25;;;;;;;6.00;2.28;;;;;;;15.23;80.04;102855.25;4882648;29;20065;-83
2023/05/19 08:40:52;;;;;;;5.78;2.33;;;;;;;15.25;81.86;102850.84;4847367;29;20053;-81
2023/05/19 08:43:20;;;;;;;5.82;2.10;;;;;;;15.25;80.21;102848.19;4891082;29;20053;-84
2023/05/19 08:45:48;;;;;;;7.00;2.38;;;;;;;15.08;80.80;102859.44;4868184;29;20048;-82
2023/05/19 08:48:18;;;;;;;3.92;2.08;;;;;;;15.09;83.14;102855.03;4861731;29;20052;-82
2023/05/19 08:51:00;;;;;;;6.70;2.47;;;;;;;15.19;82.51;102847.22;4859991;29;20534;-83
2023/05/19 08:53:35;;;;;;;7.10;2.60;;;;;;;15.21;80.66;102845.47;4863776;29;20518;-81
2023/05/19 08:56:20;;;;;;;7.80;2.50;;;;;;;15.17;80.10;102838.34;4836620;29;20103;-81
2023/05/19 08:58:49;;;;;;;5.20;2.67;;;;;;;15.08;81.60;102832.88;4867373;29;20041;-81
2023/05/19 09:01:18;;;;;;;7.45;2.45;;;;;;;15.08;81.87;102832.88;4870211;29;20659;-82
2023/05/19 09:03:48;;;;;;;5.00;2.25;;;;;;;15.20;83.31;102827.78;4847325;29;20511;-82
2023/05/19 09:06:16;;;;;;;6.03;2.03;;;;;;;15.29;81.58;102821.72;4873930;29;20056;-87
2023/05/19 09:08:44;;;;;;;7.80;3.08;;;;;;;15.33;81.30;102830.59;4868176;29;20045;-82
2023/05/19 09:11:11;;;;;;;3.13;1.90;;;;;;;15.30;81.09;102828.81;4838765;29;20068;-81
2023/05/19 09:13:39;;;;;;;3.55;2.05;;;;;;;15.33;79.89;102815.59;4883077;29;20053;-81
2023/05/19 09:16:06;;;;;;;5.45;2.20;;;;;;;15.36;79.54;102818.28;4867631;29;20052;-82
2023/05/19 09:18:37;;;;;;;4.63;2.15;;;;;;;15.36;80.49;102823.59;4857455;29;20053;-82
2023/05/19 09:21:06;;;;;;;;;;;;;;;15.49;80.21;102818.47;4868151;29;20415;-81
2023/05/19 09:23:33;;;;;;;6.88;2.08;;;;;;;15.62;79.35;102816.88;4856240;29;20389;-81
2023/05/19 09:26:03;;;;;;;5.45;2.20;;;;;;;15.59;77.67;102815.97;4839157;29;20048;-84
2023/05/19 09:28:35;;;;;;;4.97;2.20;;;;;;;15.48;78.12;102817.59;4885430;29;20051;-80
2023/05/19 09:31:03;;;;;;;4.70;2.17;;;;;;;15.46;79.44;102813.97;4870163;29;20052;-80
2023/05/19 09:33:35;;;;;;;4.28;2.30;;;;;;;15.54;79.09;102808.81;4847089;29;20068;-80
2023/05/19 09:36:05;;;;;;;10.40;2.30;;;;;;;15.58;77.91;102816.81;4869244;29;20053;-80
2023/05/19 09:38:34;;;;;;;4.40;2.13;;;;;;;15.54;78.69;102798.19;4849720;29;20056;-83
2023/05/19 09:41:02;;;;;;;8.50;2.33;;;;;;;15.64;76.38;102809.81;4873016;29;20060;-82
2023/05/19 09:43:33;;;;;;;3.73;2.07;;;;;;;15.78;76.26;102805.59;4814653;29;20056;-82
2023/05/19 09:46:10;;;;;;;7.97;2.10;;;;;;;15.89;75.71;102811.06;4875296;29;20509;-81
2023/05/19 09:48:41;;;;;;;4.38;2.00;;;;;;;15.96;74.02;102800.50;4865526;29;20055;-83
2023/05/19 09:51:11;;;;;;;5.93;1.88;;;;;;;15.98;73.09;102805.84;4855641;29;20420;-82
2023/05/19 09:53:39;;;;;;;5.60;2.03;;;;;;;16.05;72.59;102806.78;4848449;29;20040;-83
2023/05/19 09:56:08;;;;;;;8.15;2.50;;;;;;;16.10;76.99;102799.78;4878665;29;20052;-83
2023/05/19 09:58:36;;;;;;;6.90;2.92;;;;;;;16.01;78.88;102802.31;4844176;29;20064;-85
2023/05/19 10:01:06;;;;;;;8.63;2.83;;;;;;;16.02;80.38;102799.69;4847141;29;20063;-86
2023/05/19 10:03:33;;;;;;;8.88;2.75;;;;;;;15.99;80.24;102794.31;4855169;29;20041;-82
2023/05/19 10:06:03;;;;;;;8.23;2.20;;;;;;;16.00;81.79;102792.56;4875335;29;20059;-82
2023/05/19 10:08:33;;;;;;;7.20;1.95;;;;;;;16.10;80.93;102791.78;4867448;29;20055;-83
2023/05/19 10:11:02;;;;;;;9.88;2.58;;;;;;;16.13;77.70;102791.84;4875373;29;20056;-84
2023/05/19 10:13:30;;;;;;;2.72;1.90;;;;;;;16.13;78.62;102790.06;4847903;29;20049;-83
2023/05/19 10:15:59;;;;;;;3.92;1.83;;;;;;;16.13;78.68;102789.19;4870826;29;20060;-81
2023/05/19 10:18:28;;;;;;;6.75;1.80;;;;;;;16.18;78.12;102783.03;4835797;29;20052;-81
2023/05/19 10:20:56;;;;;;;3.88;1.85;;;;;;;16.25;76.34;102778.66;4851359;29;20079;-81
2023/05/19 10:23:25;;;;;;;6.70;2.25;;;;;;;16.27;75.99;102768.91;4854697;29;20069;-84
2023/05/19 10:25:57;;;;;;;5.57;1.95;;;;;;;16.29;75.25;102777.81;4903007;29;20040;-83
2023/05/19 10:28:32;;;;;;;5.97;2.20;;;;;;;16.35;73.61;102774.31;4876738;29;20044;-83
2023/05/19 10:31:01;;;;;;;4.18;2.03;;;;;;;16.42;73.81;102767.31;4850969;29;20063;-82
2023/05/19 10:33:53;;;;;;;5.07;2.00;;;;;;;16.50;73.92;102770.91;4873187;29;20072;-80
2023/05/19 10:36:38;;;;;;;5.63;2.35;;;;;;;16.61;73.58;102771.91;4841811;29;20061;-80
2023/05/19 10:39:26;;;;;;;5.28;1.80;;;;;;;16.75;73.47;102777.38;4865806;29;20053;-84
2023/05/19 10:42:11;;;;;;;4.78;2.20;;;;;;;16.87;72.45;102763.28;4867583;29;20068;-80
2023/05/19 10:45:07;;;;;;;5.10;1.98;;;;;;;16.98;71.08;102772.25;4844076;29;20059;-82
2023/05/19 10:47:34;;;;;;;3.08;1.83;;;;;;;17.01;70.09;102782.00;4876345;29;20061;-82
2023/05/19 10:50:05;;;;;;;3.72;1.90;;;;;;;17.03;70.68;102772.25;4863519;29;20045;-87
2023/05/19 10:52:37;;;;;;;7.22;1.90;;;;;;;17.07;67.05;102769.66;4859410;29;20055;-85
2023/05/19 10:55:14;;;;;;;75.57;9.05;;;;;;;17.02;65.90;102766.06;4850490;29;20049;-84
2023/05/19 10:57:56;;;;;;;3.45;1.80;;;;;;;17.09;63.83;102759.88;4886845;29;20041;-84
2023/05/19 11:00:30;;;;;;;7.25;2.25;;;;;;;17.22;66.36;102763.53;4854523;29;20049;-84
2023/05/19 11:03:13;;;;;;;4.78;2.20;;;;;;;17.42;65.63;102760.97;4880040;29;20049;-85
2023/05/19 11:05:44;;;;;;;4.63;2.03;;;;;;;17.57;65.67;102759.25;4869896;29;20056;-83
2023/05/19 11:08:11;;;;;;;4.63;1.60;;;;;;;17.64;65.97;102761.97;4864883;29;20068;-84
2023/05/19 11:10:43;;;;;;;6.93;2.00;;;;;;;17.61;61.72;102755.72;4860349;29;20048;-84
2023/05/19 11:13:19;;;;;;;2.78;2.13;;;;;;;17.57;61.29;102754.81;4876615;29;20052;-84
2023/05/19 11:15:49;;;;;;;5.55;1.92;;;;;;;17.53;60.73;102759.25;4866014;29;20047;-84
2023/05/19 11:18:18;;;;;;;5.53;2.30;;;;;;;17.36;58.11;102763.59;4866636;29;20487;-83
2023/05/19 11:20:57;;;;;;;3.13;1.52;;;;;;;17.26;58.63;102749.34;4877143;29;20283;-82
2023/05/19 11:23:25;;;;;;;7.38;1.88;;;;;;;17.40;59.80;102756.50;4865243;29;20056;-83
2023/05/19 11:25:55;;;;;;;5.22;1.98;;;;;;;17.48;59.61;102750.31;4852820;29;20044;-80
2023/05/19 11:28:26;;;;;;;7.45;1.90;;;;;;;17.68;60.89;102742.41;4882307;29;20041;-81
2023/05/19 11:31:00;;;;;;;6.88;1.92;;;;;;;17.89;59.78;102738.06;4822902;29;20064;-80
2023/05/19 11:33:31;;;;;;;4.68;1.90;;;;;;;18.02;59.41;102736.34;4875987;29;20123;-80
2023/05/19 11:35:58;;;;;;;6.05;2.25;;;;;;;18.13;59.52;102739.91;4859549;29;20067;-80
2023/05/19 11:38:28;;;;;;;4.15;1.80;;;;;;;18.19;59.12;102734.59;4858754;29;20083;-81